sensor_id;sensor_type;location;lat;lon;timestamp;pressure;altitude;pressure_sealevel;temperature;humidity
60212;BME280;46079;48.686;15.598;2023-04-19T00:00:12;100114.31;;;19.31;45.01
60212;BME280;46079;48.686;15.598;2023-04-19T00:02:38;100110.72;;;19.32;45.09
60212;BME280;46079;48.686;15.598;2023-04-19T00:05:06;100107.25;;;19.31;45.02
60212;BME280;46079;48.686;15.598;2023-04-19T00:07:32;100099.25;;;19.33;45.33
60212;BME280;46079;48.686;15.598;2023-04-19T00:09:57;100104.63;;;19.31;44.90
60212;BME280;46079;48.686;15.598;2023-04-19T00:12:22;100096.78;;;19.31;44.98
60212;BME280;46079;48.686;15.598;2023-04-19T00:14:48;100096.78;;;19.31;44.90
60212;BME280;46079;48.686;15.598;2023-04-19T00:17:13;100097.59;;;19.32;45.03
60212;BME280;46079;48.686;15.598;2023-04-19T00:19:39;100100.22;;;19.32;44.95
60212;BME280;46079;48.686;15.598;2023-04-19T00:22:04;100089.84;;;19.30;45.16
60212;BME280;46079;48.686;15.598;2023-04-19T00:24:29;100090.69;;;19.31;45.07
60212;BME280;46079;48.686;15.598;2023-04-19T00:26:55;100095.09;;;19.30;45.00
60212;BME280;46079;48.686;15.598;2023-04-19T00:29:21;100085.47;;;19.31;45.21
60212;BME280;46079;48.686;15.598;2023-04-19T00:31:47;100088.09;;;19.31;45.04
60212;BME280;46079;48.686;15.598;2023-04-19T00:34:12;100090.69;;;19.31;44.86
60212;BME280;46079;48.686;15.598;2023-04-19T00:36:38;100085.47;;;19.31;45.11
60212;BME280;46079;48.686;15.598;2023-04-19T00:39:03;100080.22;;;19.31;44.98
60212;BME280;46079;48.686;15.598;2023-04-19T00:41:28;100075.78;;;19.31;44.93
60212;BME280;46079;48.686;15.598;2023-04-19T00:43:54;100072.47;;;19.29;44.69
60212;BME280;46079;48.686;15.598;2023-04-19T00:46:20;100061.97;;;19.29;44.85
60212;BME280;46079;48.686;15.598;2023-04-19T00:48:46;100067.09;;;19.31;44.83
60212;BME280;46079;48.686;15.598;2023-04-19T00:51:11;100059.22;;;19.31;45.04
60212;BME280;46079;48.686;15.598;2023-04-19T00:53:37;100063.63;;;19.30;44.74
60212;BME280;46079;48.686;15.598;2023-04-19T00:56:05;100059.22;;;19.31;44.72
60212;BME280;46079;48.686;15.598;2023-04-19T00:58:31;100058.38;;;19.30;44.91
60212;BME280;46079;48.686;15.598;2023-04-19T01:00:56;100056.72;;;19.29;44.76
60212;BME280;46079;48.686;15.598;2023-04-19T01:03:22;100059.22;;;19.31;44.96
60212;BME280;46079;48.686;15.598;2023-04-19T01:05:48;100053.97;;;19.31;44.75
60212;BME280;46079;48.686;15.598;2023-04-19T01:08:13;100052.31;;;19.30;44.97
60212;BME280;46079;48.686;15.598;2023-04-19T01:10:39;100047.88;;;19.30;44.58
60212;BME280;46079;48.686;15.598;2023-04-19T01:13:04;100052.31;;;19.30;44.42
60212;BME280;46079;48.686;15.598;2023-04-19T01:15:30;100054.94;;;19.30;44.38
60212;BME280;46079;48.686;15.598;2023-04-19T01:17:56;100042.63;;;19.30;44.84
60212;BME280;46079;48.686;15.598;2023-04-19T01:20:22;100051.38;;;19.31;44.75
60212;BME280;46079;48.686;15.598;2023-04-19T01:22:47;100039.19;;;19.30;44.89
60212;BME280;46079;48.686;15.598;2023-04-19T01:25:13;100041.81;;;19.30;44.74
60212;BME280;46079;48.686;15.598;2023-04-19T01:27:38;100033.94;;;19.30;44.87
60212;BME280;46079;48.686;15.598;2023-04-19T01:30:04;100026.22;;;19.28;44.70
60212;BME280;46079;48.686;15.598;2023-04-19T01:32:30;100035.75;;;19.29;44.85
60212;BME280;46079;48.686;15.598;2023-04-19T01:34:56;100027.88;;;19.29;45.05
60212;BME280;46079;48.686;15.598;2023-04-19T01:37:21;100027.88;;;19.29;44.81
60212;BME280;46079;48.686;15.598;2023-04-19T01:39:47;100038.38;;;19.29;44.76
60212;BME280;46079;48.686;15.598;2023-04-19T01:42:12;100033.25;;;19.28;44.84
60212;BME280;46079;48.686;15.598;2023-04-19T01:44:38;100025.25;;;19.29;44.75
60212;BME280;46079;48.686;15.598;2023-04-19T01:47:03;100034.91;;;19.29;44.56
60212;BME280;46079;48.686;15.598;2023-04-19T01:49:29;100020.00;;;19.29;45.03
60212;BME280;46079;48.686;15.598;2023-04-19T01:51:55;100019.19;;;19.29;44.96
60212;BME280;46079;48.686;15.598;2023-04-19T01:54:20;100022.63;;;19.29;44.76
60212;BME280;46079;48.686;15.598;2023-04-19T01:56:45;100032.28;;;19.29;44.85
60212;BME280;46079;48.686;15.598;2023-04-19T01:59:11;100029.78;;;19.27;44.97
60212;BME280;46079;48.686;15.598;2023-04-19T02:01:36;100023.59;;;19.28;44.89
60212;BME280;46079;48.686;15.598;2023-04-19T02:04:02;100033.25;;;19.28;45.02
60212;BME280;46079;48.686;15.598;2023-04-19T02:06:27;100036.56;;;19.30;45.30
60212;BME280;46079;48.686;15.598;2023-04-19T02:08:53;100026.06;;;19.30;45.45
60212;BME280;46079;48.686;15.598;2023-04-19T02:11:18;100022.63;;;19.29;45.29
60212;BME280;46079;48.686;15.598;2023-04-19T02:13:44;100023.44;;;19.30;45.37
60212;BME280;46079;48.686;15.598;2023-04-19T02:16:10;100020.84;;;19.30;45.47
60212;BME280;46079;48.686;15.598;2023-04-19T02:18:36;100019.03;;;19.30;45.33
60212;BME280;46079;48.686;15.598;2023-04-19T02:21:06;100017.25;;;19.31;45.64
60212;BME280;46079;48.686;15.598;2023-04-19T02:23:32;100012.97;;;19.30;45.66
60212;BME280;46079;48.686;15.598;2023-04-19T02:25:57;100017.25;;;19.31;45.69
60212;BME280;46079;48.686;15.598;2023-04-19T02:28:23;100000.66;;;19.30;45.72
60212;BME280;46079;48.686;15.598;2023-04-19T02:30:48;100005.09;;;19.30;45.53
60212;BME280;46079;48.686;15.598;2023-04-19T02:33:14;100006.78;;;19.31;45.76
60212;BME280;46079;48.686;15.598;2023-04-19T02:35:39;100002.34;;;19.31;45.84
60212;BME280;46079;48.686;15.598;2023-04-19T02:38:04;100010.22;;;19.31;45.76
60212;BME280;46079;48.686;15.598;2023-04-19T02:40:30;100002.47;;;19.30;45.94
60212;BME280;46079;48.686;15.598;2023-04-19T02:42:58;100006.78;;;19.31;45.67
60212;BME280;46079;48.686;15.598;2023-04-19T02:45:24;100002.34;;;19.31;45.87
60212;BME280;46079;48.686;15.598;2023-04-19T02:47:49;100001.38;;;19.32;45.49
60212;BME280;46079;48.686;15.598;2023-04-19T02:50:15;100002.22;;;19.33;45.96
60212;BME280;46079;48.686;15.598;2023-04-19T02:52:41;99998.75;;;19.32;45.92
60212;BME280;46079;48.686;15.598;2023-04-19T02:55:07;99998.91;;;19.31;45.91
60212;BME280;46079;48.686;15.598;2023-04-19T02:57:32;99997.94;;;19.32;45.84
60212;BME280;46079;48.686;15.598;2023-04-19T02:59:57;99996.28;;;19.31;45.84
60212;BME280;46079;48.686;15.598;2023-04-19T03:02:26;99997.09;;;19.31;45.93
60212;BME280;46079;48.686;15.598;2023-04-19T03:04:52;99989.25;;;19.31;45.85
60212;BME280;46079;48.686;15.598;2023-04-19T03:07:18;99994.34;;;19.33;45.98
60212;BME280;46079;48.686;15.598;2023-04-19T03:09:43;99993.50;;;19.32;45.84
60212;BME280;46079;48.686;15.598;2023-04-19T03:12:09;99989.09;;;19.33;46.03
60212;BME280;46079;48.686;15.598;2023-04-19T03:14:34;99983.84;;;19.33;46.21
60212;BME280;46079;48.686;15.598;2023-04-19T03:17:00;99980.41;;;19.32;46.14
60212;BME280;46079;48.686;15.598;2023-04-19T03:19:26;99971.72;;;19.32;46.28
60212;BME280;46079;48.686;15.598;2023-04-19T03:21:51;99969.09;;;19.32;45.99
60212;BME280;46079;48.686;15.598;2023-04-19T03:24:17;99969.91;;;19.32;46.31
60212;BME280;46079;48.686;15.598;2023-04-19T03:26:43;99960.41;;;19.31;46.28
60212;BME280;46079;48.686;15.598;2023-04-19T03:29:08;99961.22;;;19.32;46.07
60212;BME280;46079;48.686;15.598;2023-04-19T03:31:34;99961.22;;;19.32;46.58
60212;BME280;46079;48.686;15.598;2023-04-19T03:33:59;99956.78;;;19.32;46.34
60212;BME280;46079;48.686;15.598;2023-04-19T03:36:25;99965.50;;;19.33;46.32
60212;BME280;46079;48.686;15.598;2023-04-19T03:38:51;99951.56;;;19.32;46.32
60212;BME280;46079;48.686;15.598;2023-04-19T03:41:18;99951.56;;;19.32;46.29
60212;BME280;46079;48.686;15.598;2023-04-19T03:43:43;99955.00;;;19.33;46.50
60212;BME280;46079;48.686;15.598;2023-04-19T03:46:08;99954.19;;;19.32;46.36
60212;BME280;46079;48.686;15.598;2023-04-19T03:48:34;99951.56;;;19.32;46.57
60212;BME280;46079;48.686;15.598;2023-04-19T03:50:59;99950.72;;;19.32;46.40
60212;BME280;46079;48.686;15.598;2023-04-19T03:53:25;99952.38;;;19.33;46.53
60212;BME280;46079;48.686;15.598;2023-04-19T03:55:50;99955.97;;;19.32;46.69
60212;BME280;46079;48.686;15.598;2023-04-19T03:58:16;99955.00;;;19.33;46.56
60212;BME280;46079;48.686;15.598;2023-04-19T04:00:41;99960.25;;;19.33;46.43
60212;BME280;46079;48.686;15.598;2023-04-19T04:03:07;99956.78;;;19.32;46.74
60212;BME280;46079;48.686;15.598;2023-04-19T04:05:33;99957.63;;;19.33;46.25
60212;BME280;46079;48.686;15.598;2023-04-19T04:07:59;99955.00;;;19.33;46.50
60212;BME280;46079;48.686;15.598;2023-04-19T04:10:25;99953.22;;;19.33;46.49
60212;BME280;46079;48.686;15.598;2023-04-19T04:12:50;99949.91;;;19.31;46.67
60212;BME280;46079;48.686;15.598;2023-04-19T04:15:16;99947.13;;;19.33;46.50
60212;BME280;46079;48.686;15.598;2023-04-19T04:17:41;99957.63;;;19.33;46.59
60212;BME280;46079;48.686;15.598;2023-04-19T04:20:07;99954.19;;;19.32;46.52
60212;BME280;46079;48.686;15.598;2023-04-19T04:22:33;99948.09;;;19.32;46.49
60212;BME280;46079;48.686;15.598;2023-04-19T04:24:58;99949.75;;;19.33;46.50
60212;BME280;46079;48.686;15.598;2023-04-19T04:27:25;99947.13;;;19.33;46.79
60212;BME280;46079;48.686;15.598;2023-04-19T04:29:51;99945.47;;;19.32;46.69
60212;BME280;46079;48.686;15.598;2023-04-19T04:32:16;99945.47;;;19.32;46.70
60212;BME280;46079;48.686;15.598;2023-04-19T04:34:42;99952.38;;;19.33;46.77
60212;BME280;46079;48.686;15.598;2023-04-19T04:37:08;99950.72;;;19.32;46.43
60212;BME280;46079;48.686;15.598;2023-04-19T04:39:34;99947.13;;;19.33;46.20
60212;BME280;46079;48.686;15.598;2023-04-19T04:42:04;99945.47;;;19.32;45.74
60212;BME280;46079;48.686;15.598;2023-04-19T04:44:32;99945.47;;;19.32;46.34
60212;BME280;46079;48.686;15.598;2023-04-19T04:46:58;99948.22;;;19.30;46.60
60212;BME280;46079;48.686;15.598;2023-04-19T04:49:23;99945.03;;;19.27;46.36
60212;BME280;46079;48.686;15.598;2023-04-19T04:51:49;99934.81;;;19.24;46.56
60212;BME280;46079;48.686;15.598;2023-04-19T04:54:14;99939.34;;;19.22;46.56
60212;BME280;46079;48.686;15.598;2023-04-19T04:56:39;99934.25;;;19.20;46.78
60212;BME280;46079;48.686;15.598;2023-04-19T04:59:05;99934.50;;;19.17;46.52
60212;BME280;46079;48.686;15.598;2023-04-19T05:01:31;99928.56;;;19.15;46.58
60212;BME280;46079;48.686;15.598;2023-04-19T05:03:57;99934.06;;;19.12;46.51
60212;BME280;46079;48.686;15.598;2023-04-19T05:06:22;99934.06;;;19.12;46.68
60212;BME280;46079;48.686;15.598;2023-04-19T05:08:48;99925.59;;;19.08;46.56
60212;BME280;46079;48.686;15.598;2023-04-19T05:11:13;99929.31;;;19.06;46.48
60212;BME280;46079;48.686;15.598;2023-04-19T05:13:39;99930.16;;;19.06;46.18
60212;BME280;46079;48.686;15.598;2023-04-19T05:16:04;99925.75;;;19.07;46.26
60212;BME280;46079;48.686;15.598;2023-04-19T05:18:30;99927.41;;;19.08;45.95
60212;BME280;46079;48.686;15.598;2023-04-19T05:20:56;99931.81;;;19.07;45.86
60212;BME280;46079;48.686;15.598;2023-04-19T05:23:21;99929.19;;;19.07;45.59
60212;BME280;46079;48.686;15.598;2023-04-19T05:25:47;99926.56;;;19.07;46.10
60212;BME280;46079;48.686;15.598;2023-04-19T05:28:12;99917.72;;;19.08;45.94
60212;BME280;46079;48.686;15.598;2023-04-19T05:30:37;99922.97;;;19.08;45.90
60212;BME280;46079;48.686;15.598;2023-04-19T05:33:03;99912.50;;;19.08;46.11
60212;BME280;46079;48.686;15.598;2023-04-19T05:35:29;99916.78;;;19.09;46.25
60212;BME280;46079;48.686;15.598;2023-04-19T05:37:54;99922.03;;;19.09;46.39
60212;BME280;46079;48.686;15.598;2023-04-19T05:40:20;99917.72;;;19.08;46.42
60212;BME280;46079;48.686;15.598;2023-04-19T05:42:47;99915.00;;;19.10;46.43
60212;BME280;46079;48.686;15.598;2023-04-19T05:45:13;99922.75;;;19.12;46.30
60212;BME280;46079;48.686;15.598;2023-04-19T05:47:40;99912.38;;;19.10;46.61
60212;BME280;46079;48.686;15.598;2023-04-19T05:50:08;99911.56;;;19.09;46.41
60212;BME280;46079;48.686;15.598;2023-04-19T05:52:34;99915.81;;;19.10;46.43
60212;BME280;46079;48.686;15.598;2023-04-19T05:54:59;99917.50;;;19.12;46.35
60212;BME280;46079;48.686;15.598;2023-04-19T05:57:25;99912.25;;;19.12;46.42
60212;BME280;46079;48.686;15.598;2023-04-19T05:59:50;99911.28;;;19.13;46.42
60212;BME280;46079;48.686;15.598;2023-04-19T06:02:16;99907.84;;;19.12;45.95
60212;BME280;46079;48.686;15.598;2023-04-19T06:04:41;99905.34;;;19.10;46.43
60212;BME280;46079;48.686;15.598;2023-04-19T06:07:06;99910.47;;;19.12;46.61
60212;BME280;46079;48.686;15.598;2023-04-19T06:09:35;99905.22;;;19.12;46.27
60212;BME280;46079;48.686;15.598;2023-04-19T06:12:00;99908.66;;;19.13;46.16
60212;BME280;46079;48.686;15.598;2023-04-19T06:14:26;99909.50;;;19.13;45.86
60212;BME280;46079;48.686;15.598;2023-04-19T06:16:53;99907.03;;;19.12;46.26
60212;BME280;46079;48.686;15.598;2023-04-19T06:19:18;99906.03;;;19.13;46.16
60212;BME280;46079;48.686;15.598;2023-04-19T06:21:44;99906.03;;;19.13;46.11
60212;BME280;46079;48.686;15.598;2023-04-19T06:24:10;99904.25;;;19.13;46.21
60212;BME280;46079;48.686;15.598;2023-04-19T06:26:35;99907.03;;;19.12;46.05
60212;BME280;46079;48.686;15.598;2023-04-19T06:29:01;99908.66;;;19.13;46.32
60212;BME280;46079;48.686;15.598;2023-04-19T06:31:26;99902.59;;;19.12;46.23
60212;BME280;46079;48.686;15.598;2023-04-19T06:33:51;99912.13;;;19.13;46.06
60212;BME280;46079;48.686;15.598;2023-04-19T06:36:17;99897.22;;;19.14;45.95
60212;BME280;46079;48.686;15.598;2023-04-19T06:38:42;99898.19;;;19.13;46.34
60212;BME280;46079;48.686;15.598;2023-04-19T06:41:09;99901.78;;;19.12;46.11
60212;BME280;46079;48.686;15.598;2023-04-19T06:43:35;99911.28;;;19.13;46.23
60212;BME280;46079;48.686;15.598;2023-04-19T06:46:01;99916.53;;;19.13;46.14
60212;BME280;46079;48.686;15.598;2023-04-19T06:48:27;99903.41;;;19.13;46.26
60212;BME280;46079;48.686;15.598;2023-04-19T06:50:53;99902.59;;;19.12;46.08
60212;BME280;46079;48.686;15.598;2023-04-19T06:53:19;99902.59;;;19.12;45.91
60212;BME280;46079;48.686;15.598;2023-04-19T06:55:45;99904.41;;;19.12;45.99
60212;BME280;46079;48.686;15.598;2023-04-19T06:58:10;99905.34;;;19.10;46.01
60212;BME280;46079;48.686;15.598;2023-04-19T07:00:36;99911.28;;;19.13;46.05
60212;BME280;46079;48.686;15.598;2023-04-19T07:03:02;99900.91;;;19.11;45.89
60212;BME280;46079;48.686;15.598;2023-04-19T07:05:28;99898.28;;;19.11;45.97
60212;BME280;46079;48.686;15.598;2023-04-19T07:07:53;99900.91;;;19.11;45.86
60212;BME280;46079;48.686;15.598;2023-04-19T07:10:19;99901.78;;;19.12;45.97
60212;BME280;46079;48.686;15.598;2023-04-19T07:12:44;99893.19;;;19.09;46.01
60212;BME280;46079;48.686;15.598;2023-04-19T07:15:10;99897.47;;;19.10;45.92
60212;BME280;46079;48.686;15.598;2023-04-19T07:17:36;99897.47;;;19.10;45.98
60212;BME280;46079;48.686;15.598;2023-04-19T07:20:02;99899.97;;;19.12;45.65
60212;BME280;46079;48.686;15.598;2023-04-19T07:22:29;99899.28;;;19.10;45.86
60212;BME280;46079;48.686;15.598;2023-04-19T07:24:55;99901.88;;;19.10;46.12
60212;BME280;46079;48.686;15.598;2023-04-19T07:27:20;99901.06;;;19.09;45.86
60212;BME280;46079;48.686;15.598;2023-04-19T07:29:45;99899.28;;;19.10;46.04
60212;BME280;46079;48.686;15.598;2023-04-19T07:32:11;99901.78;;;19.12;45.78
60212;BME280;46079;48.686;15.598;2023-04-19T07:34:39;99896.53;;;19.12;45.90
60212;BME280;46079;48.686;15.598;2023-04-19T07:37:06;99895.81;;;19.09;45.89
60212;BME280;46079;48.686;15.598;2023-04-19T07:39:32;99900.09;;;19.10;45.85
60212;BME280;46079;48.686;15.598;2023-04-19T07:41:57;99894.16;;;19.08;45.91
60212;BME280;46079;48.686;15.598;2023-04-19T07:44:23;99898.44;;;19.09;45.80
60212;BME280;46079;48.686;15.598;2023-04-19T07:46:48;99896.66;;;19.10;45.86
60212;BME280;46079;48.686;15.598;2023-04-19T07:49:14;99903.69;;;19.09;46.10
60212;BME280;46079;48.686;15.598;2023-04-19T07:51:39;99893.19;;;19.09;45.80
60212;BME280;46079;48.686;15.598;2023-04-19T07:54:05;99899.28;;;19.10;45.84
60212;BME280;46079;48.686;15.598;2023-04-19T07:56:31;99894.84;;;19.10;45.70
60212;BME280;46079;48.686;15.598;2023-04-19T07:58:58;99896.75;;;19.08;45.86
60212;BME280;46079;48.686;15.598;2023-04-19T08:01:23;99889.59;;;19.10;45.86
60212;BME280;46079;48.686;15.598;2023-04-19T08:03:48;99893.19;;;19.09;45.52
60212;BME280;46079;48.686;15.598;2023-04-19T08:06:14;99887.13;;;19.09;45.74
60212;BME280;46079;48.686;15.598;2023-04-19T08:08:39;99890.56;;;19.09;45.90
60212;BME280;46079;48.686;15.598;2023-04-19T08:11:04;99887.97;;;19.09;45.58
60212;BME280;46079;48.686;15.598;2023-04-19T08:13:30;99889.75;;;19.09;45.84
60212;BME280;46079;48.686;15.598;2023-04-19T08:15:56;99883.66;;;19.08;45.60
60212;BME280;46079;48.686;15.598;2023-04-19T08:18:21;99882.97;;;19.06;45.71
60212;BME280;46079;48.686;15.598;2023-04-19T08:20:47;99886.28;;;19.08;45.75
60212;BME280;46079;48.686;15.598;2023-04-19T08:23:13;99894.03;;;19.10;45.63
60212;BME280;46079;48.686;15.598;2023-04-19T08:25:38;99886.28;;;19.08;45.59
60212;BME280;46079;48.686;15.598;2023-04-19T08:28:04;99892.38;;;19.09;45.71
60212;BME280;46079;48.686;15.598;2023-04-19T08:30:31;99887.13;;;19.09;45.69
60212;BME280;46079;48.686;15.598;2023-04-19T08:32:56;99891.53;;;19.08;45.88
60212;BME280;46079;48.686;15.598;2023-04-19T08:35:21;99894.16;;;19.08;45.57
60212;BME280;46079;48.686;15.598;2023-04-19T08:37:47;99896.75;;;19.08;45.59
60212;BME280;46079;48.686;15.598;2023-04-19T08:40:15;99895.13;;;19.07;45.64
60212;BME280;46079;48.686;15.598;2023-04-19T08:42:42;99884.50;;;19.09;45.73
60212;BME280;46079;48.686;15.598;2023-04-19T08:45:08;99885.44;;;19.08;45.85
60212;BME280;46079;48.686;15.598;2023-04-19T08:47:38;99881.03;;;19.08;45.70
60212;BME280;46079;48.686;15.598;2023-04-19T08:50:05;99886.28;;;19.08;45.54
60212;BME280;46079;48.686;15.598;2023-04-19T08:52:33;99881.03;;;19.08;45.50
60212;BME280;46079;48.686;15.598;2023-04-19T08:55:03;99883.66;;;19.08;45.46
60212;BME280;46079;48.686;15.598;2023-04-19T08:57:30;99887.97;;;19.09;45.69
60212;BME280;46079;48.686;15.598;2023-04-19T08:59:57;99884.50;;;19.09;45.53
60212;BME280;46079;48.686;15.598;2023-04-19T09:02:23;99883.66;;;19.08;45.71
60212;BME280;46079;48.686;15.598;2023-04-19T09:04:48;99880.22;;;19.08;45.67
60212;BME280;46079;48.686;15.598;2023-04-19T09:07:26;99879.38;;;19.07;45.73
60212;BME280;46079;48.686;15.598;2023-04-19T09:10:28;99873.31;;;19.07;45.64
60212;BME280;46079;48.686;15.598;2023-04-19T09:13:02;99874.13;;;19.07;45.58
60212;BME280;46079;48.686;15.598;2023-04-19T09:15:39;99868.91;;;19.07;45.74
60212;BME280;46079;48.686;15.598;2023-04-19T09:18:09;99874.13;;;19.07;45.45
60212;BME280;46079;48.686;15.598;2023-04-19T09:20:40;99878.56;;;19.07;45.50
60212;BME280;46079;48.686;15.598;2023-04-19T09:23:08;99874.13;;;19.07;45.56
60212;BME280;46079;48.686;15.598;2023-04-19T09:25:36;99877.72;;;19.06;45.50
60212;BME280;46079;48.686;15.598;2023-04-19T09:28:09;99888.22;;;19.06;45.43
60212;BME280;46079;48.686;15.598;2023-04-19T09:30:35;99889.03;;;19.07;45.54
60212;BME280;46079;48.686;15.598;2023-04-19T09:33:00;99890.84;;;19.06;45.61
60212;BME280;46079;48.686;15.598;2023-04-19T09:35:43;99889.03;;;19.07;45.65
60212;BME280;46079;48.686;15.598;2023-04-19T09:38:11;99891.66;;;19.07;45.57
60212;BME280;46079;48.686;15.598;2023-04-19T09:40:38;99897.03;;;19.05;45.39
60212;BME280;46079;48.686;15.598;2023-04-19T09:43:04;99899.66;;;19.05;45.59
60212;BME280;46079;48.686;15.598;2023-04-19T09:45:40;99898.72;;;19.06;45.44
60212;BME280;46079;48.686;15.598;2023-04-19T09:48:06;99894.41;;;19.05;45.46
60212;BME280;46079;48.686;15.598;2023-04-19T09:50:32;99892.50;;;19.07;45.75
60212;BME280;46079;48.686;15.598;2023-04-19T09:52:58;99896.09;;;19.06;45.60
60212;BME280;46079;48.686;15.598;2023-04-19T09:55:24;99890.84;;;19.06;45.47
60212;BME280;46079;48.686;15.598;2023-04-19T09:57:51;99888.22;;;19.06;45.47
60212;BME280;46079;48.686;15.598;2023-04-19T10:00:17;99893.47;;;19.06;45.44
60212;BME280;46079;48.686;15.598;2023-04-19T10:02:43;99892.50;;;19.07;45.38
60212;BME280;46079;48.686;15.598;2023-04-19T10:05:14;99890.84;;;19.06;45.60
60212;BME280;46079;48.686;15.598;2023-04-19T10:07:39;99896.75;;;19.08;45.47
60212;BME280;46079;48.686;15.598;2023-04-19T10:10:06;99885.59;;;19.06;45.55
60212;BME280;46079;48.686;15.598;2023-04-19T10:12:34;99882.00;;;19.07;45.54
60212;BME280;46079;48.686;15.598;2023-04-19T10:15:00;99888.91;;;19.08;45.68
60212;BME280;46079;48.686;15.598;2023-04-19T10:17:26;99881.03;;;19.08;45.36
60212;BME280;46079;48.686;15.598;2023-04-19T10:19:58;99886.28;;;19.08;45.42
60212;BME280;46079;48.686;15.598;2023-04-19T10:22:26;99882.84;;;19.08;45.35
60212;BME280;46079;48.686;15.598;2023-04-19T10:25:14;99882.72;;;19.09;45.55
60212;BME280;46079;48.686;15.598;2023-04-19T10:27:41;99877.47;;;19.09;45.75
60212;BME280;46079;48.686;15.598;2023-04-19T10:30:18;99873.06;;;19.10;45.48
60212;BME280;46079;48.686;15.598;2023-04-19T10:32:45;99874.84;;;19.09;45.52
60212;BME280;46079;48.686;15.598;2023-04-19T10:35:32;99874.84;;;19.09;45.35
60212;BME280;46079;48.686;15.598;2023-04-19T10:38:06;99871.41;;;19.09;45.48
60212;BME280;46079;48.686;15.598;2023-04-19T10:43:21;99879.94;;;19.11;45.56
60212;BME280;46079;48.686;15.598;2023-04-19T10:45:46;99868.63;;;19.10;45.70
60212;BME280;46079;48.686;15.598;2023-04-19T10:51:01;99860.78;;;19.10;45.64
60212;BME280;46079;48.686;15.598;2023-04-19T10:53:47;99856.50;;;19.09;45.38
60212;BME280;46079;48.686;15.598;2023-04-19T10:56:14;99858.97;;;19.11;45.64
60212;BME280;46079;48.686;15.598;2023-04-19T11:01:46;99859.81;;;19.12;45.75
60212;BME280;46079;48.686;15.598;2023-04-19T11:04:13;99858.16;;;19.10;45.54
60212;BME280;46079;48.686;15.598;2023-04-19T11:12:04;99845.75;;;19.13;45.57
60212;BME280;46079;48.686;15.598;2023-04-19T11:14:36;99838.69;;;19.13;45.61
60212;BME280;46079;48.686;15.598;2023-04-19T11:17:13;99829.19;;;19.12;45.55
60212;BME280;46079;48.686;15.598;2023-04-19T11:19:44;99828.38;;;19.12;45.79
60212;BME280;46079;48.686;15.598;2023-04-19T11:22:10;99829.19;;;19.12;45.82
60212;BME280;46079;48.686;15.598;2023-04-19T11:24:35;99831.66;;;19.14;45.85
60212;BME280;46079;48.686;15.598;2023-04-19T11:27:06;99824.63;;;19.14;45.39
60212;BME280;46079;48.686;15.598;2023-04-19T11:29:32;99829.03;;;19.14;45.62
60212;BME280;46079;48.686;15.598;2023-04-19T11:31:59;99826.41;;;19.14;45.49
60212;BME280;46079;48.686;15.598;2023-04-19T11:34:24;99831.66;;;19.14;45.78
60212;BME280;46079;48.686;15.598;2023-04-19T11:36:51;99830.72;;;19.15;45.56
60212;BME280;46079;48.686;15.598;2023-04-19T11:39:17;99827.25;;;19.14;45.60
60212;BME280;46079;48.686;15.598;2023-04-19T11:41:42;99832.47;;;19.14;45.68
60212;BME280;46079;48.686;15.598;2023-04-19T11:44:15;99814.13;;;19.14;45.70
60212;BME280;46079;48.686;15.598;2023-04-19T11:46:41;99825.59;;;19.13;45.71
60212;BME280;46079;48.686;15.598;2023-04-19T11:49:07;99825.59;;;19.13;45.63
60212;BME280;46079;48.686;15.598;2023-04-19T11:51:32;99821.19;;;19.14;45.74
60212;BME280;46079;48.686;15.598;2023-04-19T11:53:57;99829.03;;;19.14;45.67
60212;BME280;46079;48.686;15.598;2023-04-19T11:56:23;99830.00;;;19.13;45.60
60212;BME280;46079;48.686;15.598;2023-04-19T11:58:48;99830.84;;;19.13;45.89
60212;BME280;46079;48.686;15.598;2023-04-19T12:01:19;99836.09;;;19.13;45.68
60212;BME280;46079;48.686;15.598;2023-04-19T12:03:52;99831.94;;;19.10;45.67
60212;BME280;46079;48.686;15.598;2023-04-19T12:06:22;99842.28;;;19.12;45.70
60212;BME280;46079;48.686;15.598;2023-04-19T12:08:49;99834.44;;;19.12;45.46
60212;BME280;46079;48.686;15.598;2023-04-19T12:11:24;99840.50;;;19.13;45.70
60212;BME280;46079;48.686;15.598;2023-04-19T12:14:12;99826.69;;;19.10;45.57
60212;BME280;46079;48.686;15.598;2023-04-19T12:16:38;99825.03;;;19.09;45.75
60212;BME280;46079;48.686;15.598;2023-04-19T12:19:14;99825.16;;;19.08;45.40
60212;BME280;46079;48.686;15.598;2023-04-19T12:21:41;99821.44;;;19.10;45.86
60212;BME280;46079;48.686;15.598;2023-04-19T12:24:07;99815.25;;;19.12;45.42
60212;BME280;46079;48.686;15.598;2023-04-19T12:26:33;99820.63;;;19.10;45.59
60212;BME280;46079;48.686;15.598;2023-04-19T12:29:00;99814.56;;;19.09;45.62
60212;BME280;46079;48.686;15.598;2023-04-19T12:31:26;99815.50;;;19.08;45.65
60212;BME280;46079;48.686;15.598;2023-04-19T12:33:53;99812.88;;;19.08;45.88
60212;BME280;46079;48.686;15.598;2023-04-19T12:36:18;99808.47;;;19.09;45.46
60212;BME280;46079;48.686;15.598;2023-04-19T12:38:44;99805.00;;;19.08;45.52
60212;BME280;46079;48.686;15.598;2023-04-19T12:41:09;99807.63;;;19.08;45.66
60212;BME280;46079;48.686;15.598;2023-04-19T12:43:35;99809.41;;;19.08;45.59
60212;BME280;46079;48.686;15.598;2023-04-19T12:46:01;99808.59;;;19.07;45.45
60212;BME280;46079;48.686;15.598;2023-04-19T12:48:27;99798.13;;;19.07;45.58
60212;BME280;46079;48.686;15.598;2023-04-19T12:50:52;99801.44;;;19.09;45.64
60212;BME280;46079;48.686;15.598;2023-04-19T12:53:18;99790.25;;;19.07;45.54
60212;BME280;46079;48.686;15.598;2023-04-19T12:55:44;99790.25;;;19.07;45.39
60212;BME280;46079;48.686;15.598;2023-04-19T12:58:18;99794.53;;;19.08;45.64